sensor_id;sensor_type;location;lat;lon;timestamp;P1;durP1;ratioP1;P2;durP2;ratioP2
8594;SDS011;4335;48.860;9.198;2023-03-31T00:01:24;5.00;;;1.90;;
8594;SDS011;4335;48.860;9.198;2023-03-31T00:03:52;3.67;;;1.47;;
8594;SDS011;4335;48.860;9.198;2023-03-31T00:06:37;3.00;;;1.70;;
8594;SDS011;4335;48.860;9.198;2023-03-31T00:09:13;4.40;;;1.73;;
8594;SDS011;4335;48.860;9.198;2023-03-31T00:11:43;4.17;;;1.60;;
8594;SDS011;4335;48.860;9.198;2023-03-31T00:14:10;5.73;;;1.80;;
8594;SDS011;4335;48.860;9.198;2023-03-31T00:16:39;5.50;;;1.90;;
8594;SDS011;4335;48.860;9.198;2023-03-31T00:19:08;3.83;;;1.83;;
8594;SDS011;4335;48.860;9.198;2023-03-31T00:21:43;3.63;;;2.20;;
8594;SDS011;4335;48.860;9.198;2023-03-31T00:24:12;4.40;;;2.13;;
8594;SDS011;4335;48.860;9.198;2023-03-31T00:26:43;3.83;;;1.70;;
8594;SDS011;4335;48.860;9.198;2023-03-31T00:29:11;5.23;;;1.67;;
8594;SDS011;4335;48.860;9.198;2023-03-31T00:31:39;4.03;;;1.97;;
8594;SDS011;4335;48.860;9.198;2023-03-31T00:34:09;5.67;;;1.67;;
8594;SDS011;4335;48.860;9.198;2023-03-31T00:36:40;8.13;;;2.70;;
8594;SDS011;4335;48.860;9.198;2023-03-31T00:39:16;4.60;;;1.70;;
8594;SDS011;4335;48.860;9.198;2023-03-31T00:41:44;4.00;;;1.80;;
8594;SDS011;4335;48.860;9.198;2023-03-31T00:44:12;4.43;;;2.23;;
8594;SDS011;4335;48.860;9.198;2023-03-31T00:46:44;6.50;;;1.73;;
8594;SDS011;4335;48.860;9.198;2023-03-31T00:49:20;4.63;;;2.47;;
8594;SDS011;4335;48.860;9.198;2023-03-31T00:51:53;4.03;;;2.17;;
8594;SDS011;4335;48.860;9.198;2023-03-31T00:54:27;4.03;;;2.10;;
8594;SDS011;4335;48.860;9.198;2023-03-31T00:56:58;2.57;;;1.70;;
8594;SDS011;4335;48.860;9.198;2023-03-31T00:59:28;3.37;;;1.70;;
8594;SDS011;4335;48.860;9.198;2023-03-31T01:02:01;3.20;;;1.90;;
8594;SDS011;4335;48.860;9.198;2023-03-31T01:04:30;4.90;;;2.10;;
8594;SDS011;4335;48.860;9.198;2023-03-31T01:07:02;6.27;;;2.00;;
8594;SDS011;4335;48.860;9.198;2023-03-31T01:09:35;5.80;;;2.40;;
8594;SDS011;4335;48.860;9.198;2023-03-31T01:12:07;4.47;;;1.93;;
8594;SDS011;4335;48.860;9.198;2023-03-31T01:14:36;7.23;;;2.40;;
8594;SDS011;4335;48.860;9.198;2023-03-31T01:17:03;4.97;;;2.30;;
8594;SDS011;4335;48.860;9.198;2023-03-31T01:19:37;2.83;;;1.90;;
8594;SDS011;4335;48.860;9.198;2023-03-31T01:28:32;4.17;;;2.07;;
8594;SDS011;4335;48.860;9.198;2023-03-31T01:31:09;3.13;;;1.80;;
8594;SDS011;4335;48.860;9.198;2023-03-31T01:40:42;4.33;;;2.20;;
8594;SDS011;4335;48.860;9.198;2023-03-31T01:43:28;4.90;;;2.00;;
8594;SDS011;4335;48.860;9.198;2023-03-31T01:46:07;7.47;;;2.60;;
8594;SDS011;4335;48.860;9.198;2023-03-31T01:48:46;4.77;;;2.20;;
8594;SDS011;4335;48.860;9.198;2023-03-31T01:51:26;5.63;;;2.10;;
8594;SDS011;4335;48.860;9.198;2023-03-31T01:54:02;4.57;;;2.03;;
8594;SDS011;4335;48.860;9.198;2023-03-31T01:56:42;3.10;;;2.17;;
8594;SDS011;4335;48.860;9.198;2023-03-31T01:59:15;3.57;;;2.00;;
8594;SDS011;4335;48.860;9.198;2023-03-31T02:01:48;4.27;;;1.87;;
8594;SDS011;4335;48.860;9.198;2023-03-31T02:04:21;4.97;;;2.07;;
8594;SDS011;4335;48.860;9.198;2023-03-31T02:06:53;3.60;;;1.73;;
8594;SDS011;4335;48.860;9.198;2023-03-31T02:09:27;2.27;;;1.50;;
8594;SDS011;4335;48.860;9.198;2023-03-31T02:12:02;4.13;;;1.70;;
8594;SDS011;4335;48.860;9.198;2023-03-31T02:14:34;2.67;;;1.63;;
8594;SDS011;4335;48.860;9.198;2023-03-31T02:17:09;4.13;;;1.37;;
8594;SDS011;4335;48.860;9.198;2023-03-31T02:19:46;2.33;;;1.63;;
8594;SDS011;4335;48.860;9.198;2023-03-31T02:22:29;4.77;;;1.67;;
8594;SDS011;4335;48.860;9.198;2023-03-31T02:25:03;3.60;;;1.70;;
8594;SDS011;4335;48.860;9.198;2023-03-31T02:27:35;3.20;;;1.87;;
8594;SDS011;4335;48.860;9.198;2023-03-31T02:30:08;5.13;;;2.30;;
8594;SDS011;4335;48.860;9.198;2023-03-31T02:35:28;3.03;;;1.70;;
8594;SDS011;4335;48.860;9.198;2023-03-31T02:37:55;3.03;;;1.67;;
8594;SDS011;4335;48.860;9.198;2023-03-31T02:40:23;4.20;;;1.97;;
8594;SDS011;4335;48.860;9.198;2023-03-31T02:42:58;2.43;;;1.87;;
8594;SDS011;4335;48.860;9.198;2023-03-31T02:45:36;3.67;;;1.63;;
8594;SDS011;4335;48.860;9.198;2023-03-31T02:48:09;6.50;;;2.50;;
8594;SDS011;4335;48.860;9.198;2023-03-31T02:53:59;4.60;;;2.00;;
8594;SDS011;4335;48.860;9.198;2023-03-31T02:56:47;6.03;;;1.87;;
8594;SDS011;4335;48.860;9.198;2023-03-31T02:59:43;3.00;;;2.00;;
8594;SDS011;4335;48.860;9.198;2023-03-31T03:02:18;4.30;;;2.30;;
8594;SDS011;4335;48.860;9.198;2023-03-31T03:05:16;4.00;;;2.17;;
8594;SDS011;4335;48.860;9.198;2023-03-31T03:07:49;5.37;;;2.10;;
8594;SDS011;4335;48.860;9.198;2023-03-31T03:10:27;4.53;;;2.03;;
8594;SDS011;4335;48.860;9.198;2023-03-31T03:13:08;4.13;;;1.90;;
8594;SDS011;4335;48.860;9.198;2023-03-31T03:15:48;4.80;;;2.00;;
8594;SDS011;4335;48.860;9.198;2023-03-31T03:18:24;3.87;;;1.77;;
8594;SDS011;4335;48.860;9.198;2023-03-31T03:20:51;5.80;;;2.23;;
8594;SDS011;4335;48.860;9.198;2023-03-31T03:23:25;5.30;;;2.33;;
8594;SDS011;4335;48.860;9.198;2023-03-31T03:25:52;3.23;;;2.00;;
8594;SDS011;4335;48.860;9.198;2023-03-31T03:28:23;5.23;;;2.00;;
8594;SDS011;4335;48.860;9.198;2023-03-31T03:30:58;4.13;;;2.73;;
8594;SDS011;4335;48.860;9.198;2023-03-31T03:33:25;3.77;;;2.20;;
8594;SDS011;4335;48.860;9.198;2023-03-31T03:35:56;4.27;;;2.10;;
8594;SDS011;4335;48.860;9.198;2023-03-31T03:38:23;3.60;;;2.30;;
8594;SDS011;4335;48.860;9.198;2023-03-31T03:40:51;6.17;;;2.83;;
8594;SDS011;4335;48.860;9.198;2023-03-31T03:43:19;4.07;;;1.90;;
8594;SDS011;4335;48.860;9.198;2023-03-31T03:45:46;4.63;;;2.43;;
8594;SDS011;4335;48.860;9.198;2023-03-31T03:48:22;5.87;;;2.00;;
8594;SDS011;4335;48.860;9.198;2023-03-31T03:50:50;3.97;;;2.10;;
8594;SDS011;4335;48.860;9.198;2023-03-31T03:53:22;3.00;;;2.13;;
8594;SDS011;4335;48.860;9.198;2023-03-31T03:55:49;5.70;;;2.30;;
8594;SDS011;4335;48.860;9.198;2023-03-31T03:58:16;2.80;;;2.03;;
8594;SDS011;4335;48.860;9.198;2023-03-31T04:00:44;4.47;;;2.40;;
8594;SDS011;4335;48.860;9.198;2023-03-31T04:03:14;2.90;;;2.27;;
8594;SDS011;4335;48.860;9.198;2023-03-31T04:05:43;4.30;;;2.40;;
8594;SDS011;4335;48.860;9.198;2023-03-31T04:08:14;4.77;;;2.03;;
8594;SDS011;4335;48.860;9.198;2023-03-31T04:10:42;4.47;;;2.30;;
8594;SDS011;4335;48.860;9.198;2023-03-31T04:13:11;4.37;;;2.47;;
8594;SDS011;4335;48.860;9.198;2023-03-31T04:15:41;5.17;;;3.03;;
8594;SDS011;4335;48.860;9.198;2023-03-31T04:18:12;4.43;;;2.50;;
8594;SDS011;4335;48.860;9.198;2023-03-31T04:20:57;5.37;;;2.57;;
8594;SDS011;4335;48.860;9.198;2023-03-31T04:23:29;7.30;;;2.67;;
8594;SDS011;4335;48.860;9.198;2023-03-31T04:25:57;5.17;;;2.23;;
8594;SDS011;4335;48.860;9.198;2023-03-31T04:28:25;6.43;;;2.67;;
8594;SDS011;4335;48.860;9.198;2023-03-31T04:30:58;4.20;;;2.67;;
8594;SDS011;4335;48.860;9.198;2023-03-31T04:33:26;3.30;;;2.23;;
8594;SDS011;4335;48.860;9.198;2023-03-31T04:36:01;7.50;;;3.23;;
8594;SDS011;4335;48.860;9.198;2023-03-31T04:38:34;6.43;;;3.07;;
8594;SDS011;4335;48.860;9.198;2023-03-31T04:41:07;5.47;;;3.07;;
8594;SDS011;4335;48.860;9.198;2023-03-31T04:43:35;4.87;;;2.60;;
8594;SDS011;4335;48.860;9.198;2023-03-31T04:46:03;6.57;;;3.43;;
8594;SDS011;4335;48.860;9.198;2023-03-31T04:48:42;4.17;;;2.63;;
8594;SDS011;4335;48.860;9.198;2023-03-31T04:51:11;5.33;;;2.80;;
8594;SDS011;4335;48.860;9.198;2023-03-31T04:53:42;3.33;;;2.40;;
8594;SDS011;4335;48.860;9.198;2023-03-31T04:56:10;4.03;;;2.40;;
8594;SDS011;4335;48.860;9.198;2023-03-31T04:58:37;3.77;;;2.43;;
8594;SDS011;4335;48.860;9.198;2023-03-31T05:01:05;5.93;;;2.60;;
8594;SDS011;4335;48.860;9.198;2023-03-31T05:03:32;8.13;;;3.07;;
8594;SDS011;4335;48.860;9.198;2023-03-31T05:06:00;5.93;;;3.13;;
8594;SDS011;4335;48.860;9.198;2023-03-31T05:08:31;6.37;;;2.90;;
8594;SDS011;4335;48.860;9.198;2023-03-31T05:10:58;4.03;;;3.03;;
8594;SDS011;4335;48.860;9.198;2023-03-31T05:13:36;6.70;;;2.70;;
8594;SDS011;4335;48.860;9.198;2023-03-31T05:16:12;5.17;;;2.70;;
8594;SDS011;4335;48.860;9.198;2023-03-31T05:18:41;7.13;;;3.53;;
8594;SDS011;4335;48.860;9.198;2023-03-31T05:21:12;8.73;;;3.57;;
8594;SDS011;4335;48.860;9.198;2023-03-31T05:23:42;11.30;;;3.87;;
8594;SDS011;4335;48.860;9.198;2023-03-31T05:26:10;9.77;;;5.00;;
8594;SDS011;4335;48.860;9.198;2023-03-31T05:28:39;11.43;;;3.90;;
8594;SDS011;4335;48.860;9.198;2023-03-31T05:31:07;4.47;;;3.30;;
8594;SDS011;4335;48.860;9.198;2023-03-31T05:33:38;4.23;;;3.27;;
8594;SDS011;4335;48.860;9.198;2023-03-31T05:36:09;7.17;;;3.33;;
8594;SDS011;4335;48.860;9.198;2023-03-31T05:38:38;6.77;;;3.73;;
8594;SDS011;4335;48.860;9.198;2023-03-31T05:41:07;5.97;;;3.50;;
8594;SDS011;4335;48.860;9.198;2023-03-31T05:43:36;7.00;;;3.20;;
8594;SDS011;4335;48.860;9.198;2023-03-31T05:46:04;6.67;;;3.87;;
8594;SDS011;4335;48.860;9.198;2023-03-31T05:48:32;11.53;;;3.50;;
8594;SDS011;4335;48.860;9.198;2023-03-31T05:50:59;8.60;;;4.27;;
8594;SDS011;4335;48.860;9.198;2023-03-31T05:53:30;6.17;;;3.60;;
8594;SDS011;4335;48.860;9.198;2023-03-31T05:55:58;5.37;;;3.07;;
8594;SDS011;4335;48.860;9.198;2023-03-31T05:58:28;10.03;;;3.90;;
8594;SDS011;4335;48.860;9.198;2023-03-31T06:00:59;7.70;;;4.00;;
8594;SDS011;4335;48.860;9.198;2023-03-31T06:03:30;10.73;;;4.37;;
8594;SDS011;4335;48.860;9.198;2023-03-31T06:05:57;7.27;;;4.60;;
8594;SDS011;4335;48.860;9.198;2023-03-31T06:08:26;8.77;;;4.17;;
8594;SDS011;4335;48.860;9.198;2023-03-31T06:10:55;5.17;;;3.87;;
8594;SDS011;4335;48.860;9.198;2023-03-31T06:13:23;7.80;;;3.77;;
8594;SDS011;4335;48.860;9.198;2023-03-31T06:15:55;5.47;;;3.53;;
8594;SDS011;4335;48.860;9.198;2023-03-31T06:18:25;7.13;;;3.90;;
8594;SDS011;4335;48.860;9.198;2023-03-31T06:20:57;5.33;;;3.43;;
8594;SDS011;4335;48.860;9.198;2023-03-31T06:23:25;6.50;;;4.50;;
8594;SDS011;4335;48.860;9.198;2023-03-31T06:25:54;6.27;;;3.97;;
8594;SDS011;4335;48.860;9.198;2023-03-31T06:28:31;7.07;;;4.63;;
8594;SDS011;4335;48.860;9.198;2023-03-31T06:31:01;6.50;;;4.10;;
8594;SDS011;4335;48.860;9.198;2023-03-31T06:33:30;6.57;;;3.67;;
8594;SDS011;4335;48.860;9.198;2023-03-31T06:36:01;4.83;;;4.10;;
8594;SDS011;4335;48.860;9.198;2023-03-31T06:38:30;8.40;;;3.80;;
8594;SDS011;4335;48.860;9.198;2023-03-31T06:41:00;8.70;;;4.10;;
8594;SDS011;4335;48.860;9.198;2023-03-31T06:43:34;9.33;;;4.97;;
8594;SDS011;4335;48.860;9.198;2023-03-31T06:46:05;8.43;;;5.00;;
8594;SDS011;4335;48.860;9.198;2023-03-31T06:48:33;6.60;;;4.60;;
8594;SDS011;4335;48.860;9.198;2023-03-31T06:51:02;6.97;;;4.20;;
8594;SDS011;4335;48.860;9.198;2023-03-31T06:53:30;7.10;;;5.00;;
8594;SDS011;4335;48.860;9.198;2023-03-31T06:55:58;7.57;;;4.30;;
8594;SDS011;4335;48.860;9.198;2023-03-31T06:58:32;8.53;;;5.10;;
8594;SDS011;4335;48.860;9.198;2023-03-31T07:01:07;7.77;;;4.87;;
8594;SDS011;4335;48.860;9.198;2023-03-31T07:03:38;7.60;;;4.87;;
8594;SDS011;4335;48.860;9.198;2023-03-31T07:06:11;9.20;;;5.07;;
8594;SDS011;4335;48.860;9.198;2023-03-31T07:08:39;7.73;;;5.00;;
8594;SDS011;4335;48.860;9.198;2023-03-31T07:11:12;11.03;;;6.10;;
8594;SDS011;4335;48.860;9.198;2023-03-31T07:13:48;6.00;;;4.40;;
8594;SDS011;4335;48.860;9.198;2023-03-31T07:16:17;8.17;;;5.53;;
8594;SDS011;4335;48.860;9.198;2023-03-31T07:18:45;7.73;;;5.23;;
8594;SDS011;4335;48.860;9.198;2023-03-31T07:21:12;11.93;;;5.87;;
8594;SDS011;4335;48.860;9.198;2023-03-31T07:23:42;6.93;;;3.80;;
8594;SDS011;4335;48.860;9.198;2023-03-31T07:26:09;4.87;;;3.60;;
8594;SDS011;4335;48.860;9.198;2023-03-31T07:28:40;6.47;;;4.00;;
8594;SDS011;4335;48.860;9.198;2023-03-31T07:31:14;7.80;;;4.60;;
8594;SDS011;4335;48.860;9.198;2023-03-31T07:33:52;6.30;;;4.77;;
8594;SDS011;4335;48.860;9.198;2023-03-31T07:36:22;5.03;;;3.87;;
8594;SDS011;4335;48.860;9.198;2023-03-31T07:38:49;4.33;;;2.80;;
8594;SDS011;4335;48.860;9.198;2023-03-31T07:41:17;5.03;;;3.00;;
8594;SDS011;4335;48.860;9.198;2023-03-31T07:43:46;5.80;;;2.87;;
8594;SDS011;4335;48.860;9.198;2023-03-31T07:46:15;4.57;;;3.20;;
8594;SDS011;4335;48.860;9.198;2023-03-31T07:48:44;4.00;;;2.87;;
8594;SDS011;4335;48.860;9.198;2023-03-31T07:51:21;3.33;;;2.00;;
8594;SDS011;4335;48.860;9.198;2023-03-31T07:53:50;2.60;;;2.30;;
8594;SDS011;4335;48.860;9.198;2023-03-31T07:56:18;1.77;;;1.63;;
8594;SDS011;4335;48.860;9.198;2023-03-31T07:58:49;3.13;;;2.00;;
8594;SDS011;4335;48.860;9.198;2023-03-31T08:01:18;2.47;;;1.97;;
8594;SDS011;4335;48.860;9.198;2023-03-31T08:03:50;2.83;;;1.50;;
8594;SDS011;4335;48.860;9.198;2023-03-31T08:06:23;3.80;;;2.03;;
8594;SDS011;4335;48.860;9.198;2023-03-31T08:08:51;4.87;;;2.60;;
8594;SDS011;4335;48.860;9.198;2023-03-31T08:11:22;2.57;;;1.93;;
8594;SDS011;4335;48.860;9.198;2023-03-31T08:13:50;1.33;;;1.10;;
8594;SDS011;4335;48.860;9.198;2023-03-31T08:16:18;1.33;;;1.10;;
8594;SDS011;4335;48.860;9.198;2023-03-31T08:18:45;1.57;;;1.47;;
8594;SDS011;4335;48.860;9.198;2023-03-31T08:21:13;1.90;;;1.43;;
8594;SDS011;4335;48.860;9.198;2023-03-31T08:23:44;3.00;;;1.80;;
8594;SDS011;4335;48.860;9.198;2023-03-31T08:26:19;3.73;;;1.87;;
8594;SDS011;4335;48.860;9.198;2023-03-31T08:28:48;3.03;;;1.90;;
8594;SDS011;4335;48.860;9.198;2023-03-31T08:31:16;2.37;;;1.50;;
8594;SDS011;4335;48.860;9.198;2023-03-31T08:33:57;3.97;;;1.50;;
8594;SDS011;4335;48.860;9.198;2023-03-31T08:36:25;3.33;;;1.57;;
8594;SDS011;4335;48.860;9.198;2023-03-31T08:38:54;1.90;;;1.50;;
8594;SDS011;4335;48.860;9.198;2023-03-31T08:41:41;3.80;;;1.53;;
8594;SDS011;4335;48.860;9.198;2023-03-31T08:44:15;3.40;;;1.70;;
8594;SDS011;4335;48.860;9.198;2023-03-31T08:46:45;2.10;;;1.40;;
8594;SDS011;4335;48.860;9.198;2023-03-31T08:49:18;2.93;;;1.57;;
8594;SDS011;4335;48.860;9.198;2023-03-31T08:51:51;3.30;;;1.60;;
8594;SDS011;4335;48.860;9.198;2023-03-31T08:54:27;3.83;;;1.50;;
8594;SDS011;4335;48.860;9.198;2023-03-31T08:56:57;1.63;;;1.33;;
8594;SDS011;4335;48.860;9.198;2023-03-31T08:59:26;3.23;;;1.50;;
8594;SDS011;4335;48.860;9.198;2023-03-31T09:01:58;3.87;;;1.43;;
8594;SDS011;4335;48.860;9.198;2023-03-31T09:07:24;3.43;;;2.20;;
8594;SDS011;4335;48.860;9.198;2023-03-31T09:10:02;4.23;;;1.70;;
8594;SDS011;4335;48.860;9.198;2023-03-31T09:12:52;3.13;;;1.60;;
8594;SDS011;4335;48.860;9.198;2023-03-31T09:15:25;4.43;;;1.70;;
8594;SDS011;4335;48.860;9.198;2023-03-31T09:17:59;4.17;;;2.00;;
8594;SDS011;4335;48.860;9.198;2023-03-31T09:20:32;4.93;;;1.80;;
8594;SDS011;4335;48.860;9.198;2023-03-31T09:23:04;2.73;;;1.60;;
8594;SDS011;4335;48.860;9.198;2023-03-31T09:25:38;2.37;;;1.40;;
8594;SDS011;4335;48.860;9.198;2023-03-31T09:28:11;2.97;;;1.70;;
8594;SDS011;4335;48.860;9.198;2023-03-31T09:30:47;1.90;;;1.40;;
8594;SDS011;4335;48.860;9.198;2023-03-31T09:33:18;1.33;;;1.23;;
8594;SDS011;4335;48.860;9.198;2023-03-31T09:35:55;2.93;;;1.30;;
8594;SDS011;4335;48.860;9.198;2023-03-31T09:38:26;5.80;;;1.20;;
8594;SDS011;4335;48.860;9.198;2023-03-31T09:41:02;4.27;;;1.90;;
8594;SDS011;4335;48.860;9.198;2023-03-31T09:43:33;3.07;;;1.80;;
8594;SDS011;4335;48.860;9.198;2023-03-31T09:46:00;2.63;;;1.90;;
8594;SDS011;4335;48.860;9.198;2023-03-31T09:48:33;4.53;;;1.90;;
8594;SDS011;4335;48.860;9.198;2023-03-31T09:51:02;5.47;;;1.70;;
8594;SDS011;4335;48.860;9.198;2023-03-31T09:53:39;3.10;;;1.97;;
8594;SDS011;4335;48.860;9.198;2023-03-31T09:56:12;2.93;;;1.83;;
8594;SDS011;4335;48.860;9.198;2023-03-31T09:58:59;3.10;;;1.60;;
8594;SDS011;4335;48.860;9.198;2023-03-31T10:01:27;4.33;;;1.93;;
8594;SDS011;4335;48.860;9.198;2023-03-31T10:03:58;3.93;;;2.00;;
8594;SDS011;4335;48.860;9.198;2023-03-31T10:06:29;2.57;;;1.50;;
8594;SDS011;4335;48.860;9.198;2023-03-31T10:09:24;3.23;;;1.87;;
8594;SDS011;4335;48.860;9.198;2023-03-31T10:12:02;5.00;;;2.30;;
8594;SDS011;4335;48.860;9.198;2023-03-31T10:14:34;4.67;;;1.77;;
8594;SDS011;4335;48.860;9.198;2023-03-31T10:17:10;3.13;;;1.73;;
8594;SDS011;4335;48.860;9.198;2023-03-31T10:19:46;4.63;;;2.00;;
8594;SDS011;4335;48.860;9.198;2023-03-31T10:22:26;5.13;;;1.57;;
8594;SDS011;4335;48.860;9.198;2023-03-31T10:25:06;4.87;;;2.30;;
8594;SDS011;4335;48.860;9.198;2023-03-31T10:27:37;3.10;;;1.50;;
8594;SDS011;4335;48.860;9.198;2023-03-31T10:30:08;2.80;;;1.30;;
8594;SDS011;4335;48.860;9.198;2023-03-31T10:32:39;2.83;;;1.63;;
8594;SDS011;4335;48.860;9.198;2023-03-31T10:35:13;3.10;;;1.67;;
8594;SDS011;4335;48.860;9.198;2023-03-31T10:37:55;3.17;;;1.67;;
8594;SDS011;4335;48.860;9.198;2023-03-31T10:40:26;4.80;;;2.13;;
8594;SDS011;4335;48.860;9.198;2023-03-31T10:43:02;3.40;;;1.50;;
8594;SDS011;4335;48.860;9.198;2023-03-31T10:45:37;5.20;;;1.87;;
8594;SDS011;4335;48.860;9.198;2023-03-31T10:48:18;2.77;;;1.40;;
8594;SDS011;4335;48.860;9.198;2023-03-31T10:50:50;2.37;;;1.30;;
8594;SDS011;4335;48.860;9.198;2023-03-31T10:53:21;3.73;;;1.90;;
8594;SDS011;4335;48.860;9.198;2023-03-31T10:55:56;3.40;;;1.60;;
8594;SDS011;4335;48.860;9.198;2023-03-31T10:58:41;3.37;;;1.73;;
8594;SDS011;4335;48.860;9.198;2023-03-31T11:01:29;5.30;;;1.83;;
8594;SDS011;4335;48.860;9.198;2023-03-31T11:06:56;3.97;;;1.83;;
8594;SDS011;4335;48.860;9.198;2023-03-31T11:09:35;4.90;;;2.63;;
8594;SDS011;4335;48.860;9.198;2023-03-31T11:12:13;3.80;;;1.53;;
8594;SDS011;4335;48.860;9.198;2023-03-31T11:15:07;4.50;;;1.73;;
8594;SDS011;4335;48.860;9.198;2023-03-31T11:17:46;5.97;;;2.23;;
8594;SDS011;4335;48.860;9.198;2023-03-31T11:20:23;4.47;;;1.97;;
8594;SDS011;4335;48.860;9.198;2023-03-31T11:23:02;4.33;;;1.60;;
8594;SDS011;4335;48.860;9.198;2023-03-31T11:25:43;2.87;;;1.30;;
8594;SDS011;4335;48.860;9.198;2023-03-31T11:28:19;2.90;;;1.20;;
8594;SDS011;4335;48.860;9.198;2023-03-31T11:30:55;3.03;;;1.30;;
8594;SDS011;4335;48.860;9.198;2023-03-31T11:36:59;1.43;;;1.20;;
8594;SDS011;4335;48.860;9.198;2023-03-31T11:39:50;2.07;;;1.20;;
8594;SDS011;4335;48.860;9.198;2023-03-31T11:42:32;3.53;;;1.30;;
8594;SDS011;4335;48.860;9.198;2023-03-31T11:45:04;1.23;;;1.03;;
8594;SDS011;4335;48.860;9.198;2023-03-31T11:47:43;2.93;;;1.43;;
8594;SDS011;4335;48.860;9.198;2023-03-31T11:50:13;1.30;;;1.20;;
8594;SDS011;4335;48.860;9.198;2023-03-31T11:52:47;3.53;;;0.90;;
8594;SDS011;4335;48.860;9.198;2023-03-31T11:55:20;2.33;;;1.10;;
8594;SDS011;4335;48.860;9.198;2023-03-31T11:57:53;2.23;;;1.00;;
8594;SDS011;4335;48.860;9.198;2023-03-31T12:00:36;1.00;;;0.90;;
8594;SDS011;4335;48.860;9.198;2023-03-31T12:03:09;2.63;;;1.10;;
8594;SDS011;4335;48.860;9.198;2023-03-31T12:05:41;2.17;;;1.10;;
8594;SDS011;4335;48.860;9.198;2023-03-31T12:08:15;1.10;;;0.90;;
8594;SDS011;4335;48.860;9.198;2023-03-31T12:10:49;2.93;;;1.20;;
8594;SDS011;4335;48.860;9.198;2023-03-31T12:13:32;1.40;;;1.30;;
8594;SDS011;4335;48.860;9.198;2023-03-31T12:16:05;2.30;;;1.10;;
8594;SDS011;4335;48.860;9.198;2023-03-31T12:18:43;3.73;;;0.80;;
8594;SDS011;4335;48.860;9.198;2023-03-31T12:21:27;1.67;;;1.10;;
8594;SDS011;4335;48.860;9.198;2023-03-31T12:24:00;1.27;;;0.90;;
8594;SDS011;4335;48.860;9.198;2023-03-31T12:26:33;1.90;;;1.00;;
8594;SDS011;4335;48.860;9.198;2023-03-31T12:29:16;3.63;;;1.57;;
8594;SDS011;4335;48.860;9.198;2023-03-31T12:31:55;1.67;;;1.07;;
8594;SDS011;4335;48.860;9.198;2023-03-31T12:34:26;1.53;;;1.20;;
8594;SDS011;4335;48.860;9.198;2023-03-31T12:37:05;3.30;;;1.27;;
8594;SDS011;4335;48.860;9.198;2023-03-31T12:39:51;3.10;;;1.10;;
8594;SDS011;4335;48.860;9.198;2023-03-31T12:42:43;1.90;;;1.20;;
8594;SDS011;4335;48.860;9.198;2023-03-31T12:45:29;2.73;;;1.10;;
8594;SDS011;4335;48.860;9.198;2023-03-31T12:48:08;1.87;;;1.10;;
8594;SDS011;4335;48.860;9.198;2023-03-31T12:50:49;2.13;;;1.30;;
8594;SDS011;4335;48.860;9.198;2023-03-31T12:53:30;1.37;;;0.90;;
8594;SDS011;4335;48.860;9.198;2023-03-31T12:56:05;3.23;;;1.10;;
8594;SDS011;4335;48.860;9.198;2023-03-31T12:58:40;3.77;;;1.13;;
8594;SDS011;4335;48.860;9.198;2023-03-31T13:01:18;2.07;;;0.80;;
8594;SDS011;4335;48.860;9.198;2023-03-31T13:03:47;1.93;;;1.00;;
8594;SDS011;4335;48.860;9.198;2023-03-31T13:12:15;3.33;;;1.37;;
8594;SDS011;4335;48.860;9.198;2023-03-31T13:14:45;3.70;;;1.60;;
8594;SDS011;4335;48.860;9.198;2023-03-31T13:17:26;7.77;;;1.70;;
8594;SDS011;4335;48.860;9.198;2023-03-31T13:23:00;2.90;;;1.30;;
8594;SDS011;4335;48.860;9.198;2023-03-31T13:31:08;4.87;;;1.40;;
8594;SDS011;4335;48.860;9.198;2023-03-31T13:33:43;2.00;;;1.03;;
8594;SDS011;4335;48.860;9.198;2023-03-31T13:36:32;1.00;;;0.80;;
8594;SDS011;4335;48.860;9.198;2023-03-31T13:42:20;4.50;;;1.50;;
8594;SDS011;4335;48.860;9.198;2023-03-31T13:45:22;2.60;;;1.30;;
8594;SDS011;4335;48.860;9.198;2023-03-31T13:48:13;2.40;;;1.43;;
8594;SDS011;4335;48.860;9.198;2023-03-31T13:51:05;0.97;;;0.77;;
8594;SDS011;4335;48.860;9.198;2023-03-31T13:54:02;0.77;;;0.70;;
8594;SDS011;4335;48.860;9.198;2023-03-31T13:56:53;1.27;;;0.63;;
8594;SDS011;4335;48.860;9.198;2023-03-31T14:03:03;2.60;;;0.80;;
8594;SDS011;4335;48.860;9.198;2023-03-31T14:05:49;0.93;;;0.77;;
8594;SDS011;4335;48.860;9.198;2023-03-31T14:08:28;1.17;;;0.70;;
8594;SDS011;4335;48.860;9.198;2023-03-31T14:11:15;1.03;;;0.90;;
8594;SDS011;4335;48.860;9.198;2023-03-31T14:13:45;0.80;;;0.80;;
8594;SDS011;4335;48.860;9.198;2023-03-31T14:16:25;1.47;;;0.97;;
8594;SDS011;4335;48.860;9.198;2023-03-31T14:18:54;2.27;;;1.10;;
8594;SDS011;4335;48.860;9.198;2023-03-31T14:21:39;1.93;;;1.20;;
8594;SDS011;4335;48.860;9.198;2023-03-31T14:24:16;2.53;;;1.10;;
8594;SDS011;4335;48.860;9.198;2023-03-31T14:26:57;2.50;;;1.20;;
8594;SDS011;4335;48.860;9.198;2023-03-31T14:29:37;3.10;;;1.10;;
8594;SDS011;4335;48.860;9.198;2023-03-31T14:32:13;2.73;;;1.33;;
8594;SDS011;4335;48.860;9.198;2023-03-31T14:34:56;1.83;;;0.80;;
8594;SDS011;4335;48.860;9.198;2023-03-31T14:37:32;1.60;;;1.33;;
8594;SDS011;4335;48.860;9.198;2023-03-31T14:39:59;3.77;;;1.40;;
8594;SDS011;4335;48.860;9.198;2023-03-31T14:42:34;1.30;;;1.00;;
8594;SDS011;4335;48.860;9.198;2023-03-31T14:45:16;1.73;;;1.27;;
8594;SDS011;4335;48.860;9.198;2023-03-31T14:47:53;1.40;;;0.80;;
8594;SDS011;4335;48.860;9.198;2023-03-31T14:50:22;3.87;;;1.00;;
8594;SDS011;4335;48.860;9.198;2023-03-31T14:52:55;0.80;;;0.80;;
8594;SDS011;4335;48.860;9.198;2023-03-31T14:55:29;1.30;;;0.87;;
8594;SDS011;4335;48.860;9.198;2023-03-31T14:57:59;0.83;;;0.83;;
8594;SDS011;4335;48.860;9.198;2023-03-31T15:00:30;1.10;;;0.90;;
8594;SDS011;4335;48.860;9.198;2023-03-31T15:03:00;1.00;;;0.90;;
8594;SDS011;4335;48.860;9.198;2023-03-31T15:05:35;1.10;;;0.80;;
8594;SDS011;4335;48.860;9.198;2023-03-31T15:08:13;3.40;;;1.50;;
8594;SDS011;4335;48.860;9.198;2023-03-31T15:10:43;2.90;;;1.20;;
8594;SDS011;4335;48.860;9.198;2023-03-31T15:13:18;1.23;;;0.90;;
8594;SDS011;4335;48.860;9.198;2023-03-31T15:15:51;2.60;;;1.30;;
8594;SDS011;4335;48.860;9.198;2023-03-31T15:18:19;3.27;;;1.70;;
8594;SDS011;4335;48.860;9.198;2023-03-31T15:20:46;2.40;;;1.37;;
8594;SDS011;4335;48.860;9.198;2023-03-31T15:23:18;2.70;;;1.10;;
8594;SDS011;4335;48.860;9.198;2023-03-31T15:25:49;3.27;;;1.00;;
8594;SDS011;4335;48.860;9.198;2023-03-31T15:28:20;2.20;;;1.00;;
8594;SDS011;4335;48.860;9.198;2023-03-31T15:30:59;2.70;;;1.50;;
8594;SDS011;4335;48.860;9.198;2023-03-31T15:33:30;2.30;;;1.00;;
8594;SDS011;4335;48.860;9.198;2023-03-31T15:36:05;4.43;;;1.47;;
8594;SDS011;4335;48.860;9.198;2023-03-31T15:38:33;2.50;;;1.50;;
8594;SDS011;4335;48.860;9.198;2023-03-31T15:41:01;3.00;;;1.17;;
8594;SDS011;4335;48.860;9.198;2023-03-31T15:43:30;3.40;;;1.20;;
8594;SDS011;4335;48.860;9.198;2023-03-31T15:46:00;3.33;;;1.77;;
8594;SDS011;4335;48.860;9.198;2023-03-31T15:48:29;4.60;;;1.53;;
8594;SDS011;4335;48.860;9.198;2023-03-31T15:50:59;2.83;;;1.50;;
8594;SDS011;4335;48.860;9.198;2023-03-31T15:53:36;3.07;;;1.27;;
8594;SDS011;4335;48.860;9.198;2023-03-31T15:56:27;3.53;;;1.87;;
8594;SDS011;4335;48.860;9.198;2023-03-31T15:58:59;2.63;;;1.50;;
8594;SDS011;4335;48.860;9.198;2023-03-31T16:01:30;2.20;;;1.23;;
8594;SDS011;4335;48.860;9.198;2023-03-31T16:04:05;3.13;;;1.40;;
8594;SDS011;4335;48.860;9.198;2023-03-31T16:06:38;3.60;;;1.63;;
8594;SDS011;4335;48.860;9.198;2023-03-31T16:09:13;4.20;;;1.90;;
8594;SDS011;4335;48.860;9.198;2023-03-31T16:11:49;2.47;;;1.30;;
8594;SDS011;4335;48.860;9.198;2023-03-31T16:14:19;2.37;;;1.50;;
8594;SDS011;4335;48.860;9.198;2023-03-31T16:16:53;1.97;;;1.17;;
8594;SDS011;4335;48.860;9.198;2023-03-31T16:19:23;4.93;;;1.40;;
8594;SDS011;4335;48.860;9.198;2023-03-31T16:21:53;3.20;;;1.30;;
8594;SDS011;4335;48.860;9.198;2023-03-31T16:24:32;1.93;;;1.30;;
8594;SDS011;4335;48.860;9.198;2023-03-31T16:27:01;4.57;;;1.07;;
8594;SDS011;4335;48.860;9.198;2023-03-31T16:29:32;3.87;;;1.30;;
8594;SDS011;4335;48.860;9.198;2023-03-31T16:32:10;3.07;;;1.50;;
8594;SDS011;4335;48.860;9.198;2023-03-31T16:34:50;1.70;;;1.30;;
8594;SDS011;4335;48.860;9.198;2023-03-31T16:37:20;2.10;;;1.30;;
8594;SDS011;4335;48.860;9.198;2023-03-31T16:39:47;3.40;;;1.37;;
8594;SDS011;4335;48.860;9.198;2023-03-31T16:42:21;3.87;;;1.30;;
8594;SDS011;4335;48.860;9.198;2023-03-31T16:44:49;1.73;;;1.10;;